createdAt,value
2022-11-02T00:01:22.447Z,102256.13
2022-11-02T00:03:51.663Z,102252.66
2022-11-02T00:06:19.807Z,102249.22
2022-11-02T00:08:52.647Z,102242.03
2022-11-02T00:11:21.413Z,102244.63
2022-11-02T00:13:50.236Z,102245.56
2022-11-02T00:16:24.628Z,102251.69
2022-11-02T00:19:00.686Z,102253.47
2022-11-02T00:21:29.846Z,102261.50
2022-11-02T00:23:59.774Z,102265.88
2022-11-02T00:26:31.396Z,102262.09
2022-11-02T00:28:59.869Z,102258.72
2022-11-02T00:31:27.641Z,102259.50
2022-11-02T00:33:56.856Z,102253.22
2022-11-02T00:36:28.455Z,102252.53
2022-11-02T00:38:58.716Z,102252.56
2022-11-02T00:41:30.422Z,102250.81
2022-11-02T00:44:00.401Z,102245.44
2022-11-02T00:46:28.963Z,102244.56
2022-11-02T00:49:00.701Z,102252.34
2022-11-02T00:51:30.389Z,102255.03
2022-11-02T00:54:01.822Z,102252.31
2022-11-02T00:56:29.454Z,102249.66
2022-11-02T00:59:03.151Z,102254.91
2022-11-02T01:01:33.675Z,102255.69
2022-11-02T01:04:01.855Z,102250.28
2022-11-02T01:06:39.272Z,102258.25
2022-11-02T01:09:07.456Z,102256.53
2022-11-02T01:11:35.404Z,102252.19
2022-11-02T01:14:03.067Z,102250.41
2022-11-02T01:16:36.384Z,102249.53
2022-11-02T01:19:03.926Z,102256.50
2022-11-02T01:21:39.353Z,102254.59
2022-11-02T01:24:08.176Z,102263.22
2022-11-02T01:26:36.853Z,102263.94
2022-11-02T01:29:05.061Z,102260.59
2022-11-02T01:31:32.687Z,102262.34
2022-11-02T01:34:03.234Z,102254.34
2022-11-02T01:36:32.645Z,102260.47
2022-11-02T01:39:00.442Z,102250.81
2022-11-02T01:41:33.919Z,102258.69
2022-11-02T01:44:05.697Z,102254.28
2022-11-02T01:46:46.829Z,102251.84
2022-11-02T01:49:20.319Z,102241.16
2022-11-02T01:52:31.170Z,102251.72
2022-11-02T01:55:12.169Z,102248.31
2022-11-02T01:57:44.286Z,102242.16
2022-11-02T02:00:15.472Z,102258.72
2022-11-02T02:03:18.422Z,102261.81
2022-11-02T02:05:58.079Z,102261.13
2022-11-02T02:08:29.473Z,102261.19
2022-11-02T02:11:00.737Z,102257.47
2022-11-02T02:13:30.183Z,102255.03
2022-11-02T02:16:16.313Z,102262.09
2022-11-02T02:18:53.738Z,102261.13
2022-11-02T02:21:50.750Z,102258.25
2022-11-02T02:24:38.580Z,102255.88
2022-11-02T02:27:24.367Z,102254.16
2022-11-02T02:30:10.998Z,102257.66
2022-11-02T02:32:57.150Z,102258.41
2022-11-02T02:35:35.909Z,102260.25
2022-11-02T02:38:18.499Z,102261.16
2022-11-02T02:41:00.527Z,102259.38
2022-11-02T02:43:43.057Z,102256.81
2022-11-02T02:46:27.581Z,102257.44
2022-11-02T02:48:57.915Z,102259.44
2022-11-02T02:51:32.235Z,102255.91
2022-11-02T02:54:10.947Z,102264.69
2022-11-02T02:56:54.057Z,102262.06
2022-11-02T02:59:28.634Z,102262.88
2022-11-02T03:01:59.949Z,102262.78
2022-11-02T03:04:28.103Z,102261.81
2022-11-02T03:07:01.015Z,102270.28
2022-11-02T03:10:05.238Z,102266.75
2022-11-02T03:12:46.303Z,102267.72
2022-11-02T03:15:25.827Z,102271.28
2022-11-02T03:18:15.475Z,102271.16
2022-11-02T03:21:06.882Z,102263.38
2022-11-02T03:23:44.088Z,102269.38
2022-11-02T03:26:27.547Z,102278.97
2022-11-02T03:29:19.396Z,102271.97
2022-11-02T03:31:55.666Z,102269.22
2022-11-02T03:34:39.165Z,102276.28
2022-11-02T03:37:25.747Z,102283.38
2022-11-02T03:40:02.991Z,102282.38
2022-11-02T03:42:36.997Z,102279.97
2022-11-02T03:45:15.196Z,102287.06
2022-11-02T03:48:07.374Z,102291.63
2022-11-02T03:50:39.367Z,102295.03
2022-11-02T03:53:17.987Z,102288.03
2022-11-02T03:55:59.704Z,102281.16
2022-11-02T03:58:28.053Z,102283.03
2022-11-02T04:01:03.092Z,102275.22
2022-11-02T04:03:34.222Z,102276.88
2022-11-02T04:06:02.283Z,102286.41
2022-11-02T04:08:37.503Z,102279.28
2022-11-02T04:11:27.851Z,102286.41
2022-11-02T04:14:18.233Z,102284.81
2022-11-02T04:16:49.532Z,102287.50
2022-11-02T04:19:30.370Z,102285.78
2022-11-02T04:22:22.728Z,102276.03
2022-11-02T04:25:14.350Z,102282.34
2022-11-02T04:27:47.437Z,102289.94
2022-11-02T04:30:18.928Z,102297.06
2022-11-02T04:33:10.112Z,102295.22
2022-11-02T04:35:53.645Z,102294.44
2022-11-02T04:38:41.209Z,102299.34
2022-11-02T04:41:39.177Z,102302.72
2022-11-02T04:44:17.751Z,102298.38
2022-11-02T04:46:56.089Z,102294.16
2022-11-02T04:49:27.662Z,102293.94
2022-11-02T04:51:55.689Z,102290.56
2022-11-02T04:54:23.544Z,102299.00
2022-11-02T04:56:59.105Z,102295.69
2022-11-02T04:59:29.805Z,102296.59
2022-11-02T05:01:58.943Z,102294.09
2022-11-02T05:04:27.301Z,102296.63
2022-11-02T05:07:01.283Z,102303.47
2022-11-02T05:09:34.271Z,102298.13
2022-11-02T05:12:02.353Z,102294.81
2022-11-02T05:14:31.212Z,102307.84
2022-11-02T05:16:59.628Z,102313.03
2022-11-02T05:19:27.763Z,102308.63
2022-11-02T05:21:56.151Z,102313.94
2022-11-02T05:24:25.992Z,102309.41
2022-11-02T05:26:54.114Z,102303.44
2022-11-02T05:29:24.975Z,102306.91
2022-11-02T05:31:53.854Z,102315.72
2022-11-02T05:34:24.216Z,102312.16
2022-11-02T05:36:52.897Z,102320.91
2022-11-02T05:39:35.605Z,102330.69
2022-11-02T05:42:14.410Z,102336.00
2022-11-02T05:44:42.524Z,102331.63
2022-11-02T05:47:13.671Z,102335.00
2022-11-02T05:49:41.264Z,102337.66
2022-11-02T05:52:09.815Z,102343.88
2022-11-02T05:54:41.341Z,102345.63
2022-11-02T05:57:11.648Z,102347.28
2022-11-02T05:59:40.300Z,102341.13
2022-11-02T06:02:08.322Z,102339.31
2022-11-02T06:04:36.758Z,102342.91
2022-11-02T06:07:14.757Z,102337.53
2022-11-02T06:09:53.570Z,102336.66
2022-11-02T06:12:31.265Z,102337.56
2022-11-02T06:15:01.200Z,102337.63
2022-11-02T06:17:29.197Z,102346.38
2022-11-02T06:19:57.326Z,102354.38
2022-11-02T06:22:25.975Z,102361.97
2022-11-02T06:24:55.775Z,102356.94
2022-11-02T06:27:25.070Z,102360.34
2022-11-02T06:29:56.015Z,102355.25
2022-11-02T06:32:26.238Z,102354.19
2022-11-02T06:34:54.098Z,102357.78
2022-11-02T06:37:24.329Z,102369.06
2022-11-02T06:39:55.895Z,102366.31
2022-11-02T06:42:36.911Z,102374.31
2022-11-02T06:45:13.752Z,102378.13
2022-11-02T06:47:42.198Z,102379.94
2022-11-02T06:50:10.482Z,102382.53
2022-11-02T06:52:48.556Z,102379.84
2022-11-02T06:55:18.327Z,102390.34
2022-11-02T06:57:46.062Z,102392.97
2022-11-02T07:00:22.786Z,102396.34
2022-11-02T07:03:09.829Z,102401.78
2022-11-02T07:05:40.866Z,102399.34
2022-11-02T07:08:08.457Z,102408.28
2022-11-02T07:10:40.499Z,102413.56
2022-11-02T07:13:08.430Z,102404.88
2022-11-02T07:15:40.118Z,102411.22
2022-11-02T07:18:08.946Z,102407.84
2022-11-02T07:20:36.740Z,102408.69
2022-11-02T07:23:05.747Z,102404.38
2022-11-02T07:25:37.143Z,102419.41
2022-11-02T07:28:06.394Z,102422.09
2022-11-02T07:30:35.222Z,102428.25
2022-11-02T07:33:03.709Z,102423.84
2022-11-02T07:35:31.414Z,102427.41
2022-11-02T07:38:04.579Z,102428.34
2022-11-02T07:40:34.187Z,102430.91
2022-11-02T07:43:05.996Z,102430.94
2022-11-02T07:45:41.779Z,102435.50
2022-11-02T07:48:09.077Z,102429.41
2022-11-02T07:50:36.256Z,102427.72
2022-11-02T07:53:04.261Z,102424.25
2022-11-02T07:55:32.842Z,102418.19
2022-11-02T07:58:03.309Z,102426.19
2022-11-02T08:00:33.898Z,102431.44
2022-11-02T08:03:03.216Z,102428.84
2022-11-02T08:05:32.877Z,102431.44
2022-11-02T08:08:16.578Z,102422.75
2022-11-02T08:10:56.542Z,102424.66
2022-11-02T08:13:26.275Z,102432.78
2022-11-02T08:15:57.379Z,102432.97
2022-11-02T08:18:27.810Z,102442.03
2022-11-02T08:20:57.849Z,102443.22
2022-11-02T08:23:26.771Z,102444.47
2022-11-02T08:26:02.442Z,102448.00
2022-11-02T08:28:40.817Z,102435.19
2022-11-02T08:31:18.042Z,102441.66
2022-11-02T08:33:46.365Z,102444.50
2022-11-02T08:36:14.435Z,102445.59
2022-11-02T08:38:44.649Z,102436.00
2022-11-02T08:41:12.045Z,102429.03
2022-11-02T08:43:41.533Z,102431.75
2022-11-02T08:46:14.790Z,102428.25
2022-11-02T08:48:46.716Z,102422.97
2022-11-02T08:51:14.046Z,102430.06
2022-11-02T08:53:50.403Z,102430.94
2022-11-02T08:56:41.411Z,102429.13
2022-11-02T08:59:09.177Z,102427.31
2022-11-02T09:01:39.967Z,102427.31
2022-11-02T09:04:11.077Z,102428.13
2022-11-02T09:06:38.261Z,102434.28
2022-11-02T09:09:11.372Z,102440.34
2022-11-02T09:11:41.266Z,102430.72
2022-11-02T09:14:08.667Z,102427.91
2022-11-02T09:16:41.263Z,102439.41
2022-11-02T09:19:12.123Z,102435.91
2022-11-02T09:21:41.149Z,102436.59
2022-11-02T09:24:09.062Z,102437.31
2022-11-02T09:26:36.404Z,102430.28
2022-11-02T09:29:03.744Z,102437.13
2022-11-02T09:31:31.124Z,102441.63
2022-11-02T09:34:02.765Z,102445.06
2022-11-02T09:36:31.731Z,102444.06
2022-11-02T09:39:01.914Z,102438.72
2022-11-02T09:41:33.023Z,102432.28
2022-11-02T09:44:03.967Z,102436.09
2022-11-02T09:46:40.746Z,102438.63
2022-11-02T09:49:17.318Z,102441.88
2022-11-02T09:51:50.419Z,102442.38
2022-11-02T09:54:34.726Z,102432.59
2022-11-02T09:57:09.694Z,102433.56
2022-11-02T09:59:37.867Z,102431.41
2022-11-02T10:02:26.055Z,102438.56
2022-11-02T10:05:28.283Z,102435.94
2022-11-02T10:08:04.832Z,102433.91
2022-11-02T10:10:39.817Z,102439.09
2022-11-02T10:13:22.599Z,102430.84
2022-11-02T10:15:56.486Z,102440.69
2022-11-02T10:18:32.690Z,102438.69
2022-11-02T10:21:05.716Z,102445.00
2022-11-02T10:23:40.584Z,102441.47
2022-11-02T10:26:16.508Z,102440.09
2022-11-02T10:28:53.916Z,102435.56
2022-11-02T10:31:29.592Z,102435.59
2022-11-02T10:34:13.015Z,102429.94
2022-11-02T10:37:10.706Z,102435.81
2022-11-02T10:39:56.355Z,102437.06
2022-11-02T10:43:01.312Z,102437.78
2022-11-02T10:45:57.032Z,102425.47
2022-11-02T10:48:37.782Z,102423.69
2022-11-02T10:51:16.098Z,102411.84
2022-11-02T10:53:48.199Z,102417.69
2022-11-02T10:56:32.293Z,102406.19
2022-11-02T10:58:59.575Z,102410.84
2022-11-02T11:01:28.986Z,102413.34
2022-11-02T11:04:22.475Z,102402.22
2022-11-02T11:06:52.558Z,102395.44
2022-11-02T11:09:49.517Z,102393.47
2022-11-02T11:12:46.764Z,102388.03
2022-11-02T11:15:49.936Z,102386.00
2022-11-02T11:21:13.011Z,102383.19
2022-11-02T11:23:40.339Z,102371.97
2022-11-02T11:26:27.838Z,102372.84
2022-11-02T11:28:59.456Z,102365.47
2022-11-02T11:31:26.869Z,102366.38
2022-11-02T11:33:58.800Z,102360.34
2022-11-02T11:36:35.967Z,102358.69
2022-11-02T11:39:07.472Z,102355.00
2022-11-02T11:41:39.487Z,102345.72
2022-11-02T11:44:14.677Z,102339.88
2022-11-02T11:46:47.244Z,102340.59
2022-11-02T11:50:07.138Z,102335.13
2022-11-02T11:52:32.590Z,102325.13
2022-11-02T11:55:41.488Z,102321.84
2022-11-02T11:58:31.430Z,102314.59
2022-11-02T12:01:12.235Z,102309.50
2022-11-02T12:04:03.792Z,102302.13
2022-11-02T12:06:55.840Z,102294.06
2022-11-02T12:09:32.014Z,102291.38
2022-11-02T12:12:14.376Z,102293.81
2022-11-02T12:15:01.394Z,102293.31
2022-11-02T12:17:50.762Z,102292.38
2022-11-02T12:20:46.253Z,102296.81
2022-11-02T12:23:30.962Z,102298.25
2022-11-02T12:26:23.359Z,102288.84
2022-11-02T12:28:56.552Z,102290.22
2022-11-02T12:31:29.791Z,102289.09
2022-11-02T12:34:52.866Z,102276.03
2022-11-02T12:37:40.241Z,102266.28
2022-11-02T12:40:31.030Z,102264.47
2022-11-02T12:43:36.487Z,102250.53
2022-11-02T12:46:25.578Z,102261.91
2022-11-02T12:49:36.649Z,102252.44
2022-11-02T12:52:19.979Z,102246.31
2022-11-02T12:54:58.426Z,102239.88
2022-11-02T12:57:38.491Z,102243.31
2022-11-02T13:00:19.901Z,102234.09
2022-11-02T13:03:39.687Z,102227.72
2022-11-02T13:06:13.219Z,102221.09
2022-11-02T13:09:50.394Z,102209.63
2022-11-02T13:12:37.411Z,102200.50
2022-11-02T13:15:15.850Z,102198.53
2022-11-02T13:18:09.178Z,102196.59
2022-11-02T13:20:40.503Z,102198.44
2022-11-02T13:23:42.699Z,102198.97
2022-11-02T13:26:39.851Z,102190.28
2022-11-02T13:29:32.192Z,102192.31
2022-11-02T13:32:33.620Z,102184.81
2022-11-02T13:35:28.952Z,102187.38
2022-11-02T13:38:12.237Z,102198.06
2022-11-02T13:40:49.459Z,102190.03
2022-11-02T13:44:14.125Z,102186.72
2022-11-02T13:47:22.595Z,102184.13
2022-11-02T13:49:57.496Z,102183.56
2022-11-02T13:52:54.756Z,102178.44
2022-11-02T13:55:53.130Z,102181.44
2022-11-02T13:58:56.341Z,102171.22
2022-11-02T14:01:31.974Z,102171.50
2022-11-02T14:04:08.791Z,102171.06
2022-11-02T14:10:29.743Z,102165.69
2022-11-02T14:13:20.613Z,102163.53
2022-11-02T14:15:53.544Z,102151.88
2022-11-02T14:18:34.992Z,102150.88
2022-11-02T14:21:44.953Z,102148.94
2022-11-02T14:24:52.201Z,102148.53
2022-11-02T14:27:40.073Z,102142.75
2022-11-02T14:30:49.821Z,102145.72
2022-11-02T14:34:13.978Z,102153.44
2022-11-02T14:37:14.802Z,102155.97
2022-11-02T14:40:05.968Z,102158.97
2022-11-02T14:43:05.070Z,102160.66
2022-11-02T14:45:51.183Z,102163.81
2022-11-02T14:48:49.184Z,102164.78
2022-11-02T14:51:34.219Z,102160.88
2022-11-02T14:57:44.633Z,102162.66
2022-11-02T15:00:49.286Z,102170.22
2022-11-02T15:03:45.797Z,102160.97
2022-11-02T15:06:28.894Z,102154.47
2022-11-02T15:09:07.285Z,102151.25
2022-11-02T15:12:00.609Z,102146.13
2022-11-02T15:14:36.379Z,102146.94
2022-11-02T15:17:32.699Z,102145.41
2022-11-02T15:20:18.129Z,102148.78
2022-11-02T15:23:01.085Z,102151.34
2022-11-02T15:25:36.512Z,102150.41
2022-11-02T15:28:24.885Z,102143.50
2022-11-02T15:30:59.499Z,102150.69
2022-11-02T15:33:44.216Z,102146.13
2022-11-02T15:36:22.152Z,102140.28
2022-11-02T15:39:02.567Z,102141.97
2022-11-02T15:42:05.065Z,102144.72
2022-11-02T15:44:47.287Z,102141.19
2022-11-02T15:47:49.696Z,102130.47
2022-11-02T15:50:56.649Z,102137.53
2022-11-02T15:54:01.558Z,102137.69
2022-11-02T15:57:11.494Z,102146.63
2022-11-02T16:00:24.899Z,102143.03
2022-11-02T16:02:59.953Z,102154.53
2022-11-02T16:05:54.960Z,102147.50
2022-11-02T16:08:43.284Z,102154.59
2022-11-02T16:11:23.756Z,102158.16
2022-11-02T16:14:22.332Z,102148.47
2022-11-02T16:16:59.224Z,102140.47
2022-11-02T16:19:41.298Z,102141.34
2022-11-02T16:22:26.224Z,102126.41
2022-11-02T16:24:54.978Z,102134.28
2022-11-02T16:27:28.396Z,102138.78
2022-11-02T16:29:56.255Z,102136.06
2022-11-02T16:32:41.453Z,102130.84
2022-11-02T16:35:22.752Z,102131.72
2022-11-02T16:37:54.171Z,102138.78
2022-11-02T16:40:50.561Z,102137.00
2022-11-02T16:43:57.395Z,102143.22
2022-11-02T16:46:47.883Z,102141.44
2022-11-02T16:49:28.619Z,102148.50
2022-11-02T16:52:13.433Z,102139.72
2022-11-02T16:55:31.286Z,102129.13
2022-11-02T16:58:19.900Z,102130.88
2022-11-02T17:01:50.714Z,102128.22
2022-11-02T17:04:28.429Z,102126.47
2022-11-02T17:07:24.636Z,102125.56
2022-11-02T17:10:09.894Z,102131.75
2022-11-02T17:13:17.229Z,102128.22
2022-11-02T17:16:03.808Z,102132.66
2022-11-02T17:18:49.625Z,102125.56
2022-11-02T17:21:35.074Z,102121.19
2022-11-02T17:24:40.376Z,102129.13
2022-11-02T17:27:27.214Z,102134.44
2022-11-02T17:29:55.267Z,102130.03
2022-11-02T17:32:23.816Z,102129.13
2022-11-02T17:34:56.712Z,102142.34
2022-11-02T17:37:25.634Z,102131.78
2022-11-02T17:39:56.259Z,102137.97
2022-11-02T17:42:47.040Z,102152.03
2022-11-02T17:45:24.729Z,102149.41
2022-11-02T17:47:56.379Z,102148.53
2022-11-02T17:50:25.776Z,102146.75
2022-11-02T17:53:03.291Z,102154.69
2022-11-02T17:55:40.311Z,102152.94
2022-11-02T17:58:08.574Z,102147.63
2022-11-02T18:00:39.450Z,102154.72
2022-11-02T18:03:31.174Z,102157.34
2022-11-02T18:06:05.290Z,102154.69
2022-11-02T18:08:55.959Z,102161.75
2022-11-02T18:11:31.817Z,102159.09
2022-11-02T18:14:03.023Z,102155.56
2022-11-02T18:16:35.352Z,102158.25
2022-11-02T18:19:10.596Z,102160.84
2022-11-02T18:21:43.102Z,102161.75
2022-11-02T18:24:11.653Z,102159.09
2022-11-02T18:26:42.755Z,102153.81
2022-11-02T18:29:16.695Z,102152.94
2022-11-02T18:34:33.157Z,102158.19
2022-11-02T18:40:03.451Z,102157.31
2022-11-02T18:42:48.034Z,102150.31
2022-11-02T18:48:06.959Z,102148.50
2022-11-02T18:50:35.319Z,102150.22
2022-11-02T18:53:10.060Z,102150.22
2022-11-02T18:55:43.978Z,102151.09
2022-11-02T18:58:14.683Z,102144.06
2022-11-02T19:01:11.279Z,102137.88
2022-11-02T19:03:45.018Z,102144.97
2022-11-02T19:06:34.756Z,102128.19
2022-11-02T19:09:24.086Z,102132.59
2022-11-02T19:12:04.495Z,102129.94
2022-11-02T19:17:42.676Z,102119.38
2022-11-02T19:20:22.989Z,102122.03
2022-11-02T19:22:57.268Z,102122.00
2022-11-02T19:25:24.596Z,102120.25
2022-11-02T19:27:51.902Z,102114.94
2022-11-02T19:30:20.144Z,102112.34
2022-11-02T19:32:47.330Z,102114.97
2022-11-02T19:35:14.563Z,102108.81
2022-11-02T19:37:41.804Z,102113.19
2022-11-02T19:40:09.837Z,102107.03
2022-11-02T19:42:37.173Z,102106.16
2022-11-02T19:45:06.113Z,102099.09
2022-11-02T19:47:34.442Z,102097.38
2022-11-02T19:50:03.427Z,102105.25
2022-11-02T19:52:30.850Z,102110.56
2022-11-02T19:54:59.134Z,102102.63
2022-11-02T19:57:30.715Z,102094.72
2022-11-02T20:00:00.832Z,102092.94
2022-11-02T20:02:28.190Z,102081.50
2022-11-02T20:04:55.986Z,102087.63
2022-11-02T20:07:24.959Z,102086.75
2022-11-02T20:09:58.796Z,102092.91
2022-11-02T20:12:27.135Z,102082.38
2022-11-02T20:14:54.429Z,102078.84
2022-11-02T20:17:51.888Z,102072.66
2022-11-02T20:20:09.984Z,102070.03
2022-11-02T20:22:38.840Z,102085.88
2022-11-02T20:25:10.030Z,102077.94
2022-11-02T20:27:41.640Z,102081.44
2022-11-02T20:30:09.733Z,102071.69
2022-11-02T20:32:37.457Z,102080.50
2022-11-02T20:35:09.710Z,102076.06
2022-11-02T20:37:42.955Z,102083.09
2022-11-02T20:40:13.757Z,102075.16
2022-11-02T20:42:41.447Z,102076.94
2022-11-02T20:45:09.690Z,102078.69
2022-11-02T20:47:37.385Z,102079.56
2022-11-02T20:50:05.061Z,102083.97
2022-11-02T20:52:33.932Z,102090.97
2022-11-02T20:57:51.671Z,102092.72
2022-11-02T21:00:25.240Z,102089.22
2022-11-02T21:03:03.541Z,102088.28
2022-11-02T21:05:42.315Z,102090.03
2022-11-02T21:08:23.404Z,102086.53
2022-11-02T21:14:51.523Z,102093.50
2022-11-02T21:17:34.214Z,102090.84
2022-11-02T21:23:10.183Z,102100.38
2022-11-02T21:25:48.287Z,102091.63
2022-11-02T21:28:30.036Z,102095.97
2022-11-02T21:31:58.154Z,102095.06
2022-11-02T21:34:28.589Z,102102.13
2022-11-02T21:37:06.598Z,102093.22
2022-11-02T21:39:35.399Z,102092.41
2022-11-02T21:42:09.066Z,102087.19
2022-11-02T21:44:55.086Z,102094.25
2022-11-02T21:47:23.631Z,102086.31
2022-11-02T21:50:00.050Z,102077.44
2022-11-02T21:52:50.298Z,102080.97
2022-11-02T21:55:44.194Z,102078.25
2022-11-02T21:58:43.043Z,102071.22
2022-11-02T22:01:48.122Z,102080.97
2022-11-02T22:04:32.340Z,102084.44
2022-11-02T22:07:15.601Z,102084.44
2022-11-02T22:10:10.911Z,102078.28
2022-11-02T22:13:01.271Z,102073.81
2022-11-02T22:15:37.393Z,102073.00
2022-11-02T22:18:21.079Z,102069.53
2022-11-02T22:21:08.294Z,102065.06
2022-11-02T22:24:00.164Z,102070.22
2022-11-02T22:26:46.997Z,102064.13
2022-11-02T22:29:23.986Z,102058.84
2022-11-02T22:32:10.181Z,102058.84
2022-11-02T22:35:02.866Z,102052.63
2022-11-02T22:38:16.248Z,102052.56
2022-11-02T22:41:02.683Z,102049.91
2022-11-02T22:44:18.476Z,102047.25
2022-11-02T22:47:00.962Z,102038.41
2022-11-02T22:52:31.407Z,102034.94
2022-11-02T22:55:27.012Z,102036.63
2022-11-02T22:58:07.161Z,102031.44
2022-11-02T23:00:47.606Z,102026.88
2022-11-02T23:03:31.788Z,102028.72
2022-11-02T23:06:15.595Z,102015.44
2022-11-02T23:08:56.707Z,102018.94
2022-11-02T23:11:42.297Z,102014.66
2022-11-02T23:14:13.415Z,102014.56
2022-11-02T23:17:02.372Z,102011.03
2022-11-02T23:19:30.339Z,102003.97
2022-11-02T23:22:38.861Z,102013.56
2022-11-02T23:25:22.640Z,102010.00
2022-11-02T23:28:15.844Z,102007.34
2022-11-02T23:31:03.221Z,101994.19
2022-11-02T23:33:33.755Z,101995.06
2022-11-02T23:36:16.155Z,102003.84
2022-11-02T23:39:04.500Z,101994.25
2022-11-02T23:41:35.098Z,101993.31
2022-11-02T23:44:12.420Z,101994.19
2022-11-02T23:46:44.792Z,101989.69
2022-11-02T23:49:13.904Z,101983.66
2022-11-02T23:52:02.726Z,101979.28
2022-11-02T23:54:49.479Z,101971.28
2022-11-02T23:57:21.414Z,101977.47
2022-11-02T23:59:48.981Z,101973.97
